Terminal Aerodrome Forecast
Issued by NWS

Home | Current Version | Previous Version | Text Only | Print | Product List | Glossary On
Versions: 1 2 3 4 5 6 7 8 9 10 11 12 13 14 15 16 17
000
FTUS43 KICT 222325
TAFCNU
TAF
KCNU 222325Z 2300/2324 03010KT P6SM OVC012
     FM230200 02009KT P6SM SCT015 BKN025
     FM230900 36008KT P6SM BKN050
     FM232200 02009KT P6SM SCT140=

USA.gov is the U.S. government's official web portal to all federal, state and local government web resources and services.